sensor_id;sensor_type;location;lat;lon;timestamp;temperature;humidity
25450;DHT22;13371;52.080;5.624;2022-08-01T00:00:05;22.70;94.60
25450;DHT22;13371;52.080;5.624;2022-08-01T00:02:31;22.70;94.70
25450;DHT22;13371;52.080;5.624;2022-08-01T00:04:57;22.70;94.70
25450;DHT22;13371;52.080;5.624;2022-08-01T00:07:23;22.90;94.70
25450;DHT22;13371;52.080;5.624;2022-08-01T00:09:48;22.80;94.40
25450;DHT22;13371;52.080;5.624;2022-08-01T00:12:14;22.80;94.60
25450;DHT22;13371;52.080;5.624;2022-08-01T00:14:40;22.80;94.50
25450;DHT22;13371;52.080;5.624;2022-08-01T00:17:05;22.70;94.10
25450;DHT22;13371;52.080;5.624;2022-08-01T00:19:31;22.60;94.80
25450;DHT22;13371;52.080;5.624;2022-08-01T00:21:57;22.90;94.30
25450;DHT22;13371;52.080;5.624;2022-08-01T00:24:22;22.40;94.70
25450;DHT22;13371;52.080;5.624;2022-08-01T00:26:48;22.40;95.00
25450;DHT22;13371;52.080;5.624;2022-08-01T00:29:13;22.40;94.90
25450;DHT22;13371;52.080;5.624;2022-08-01T00:31:39;22.50;94.90
25450;DHT22;13371;52.080;5.624;2022-08-01T00:34:04;22.70;94.90
25450;DHT22;13371;52.080;5.624;2022-08-01T00:36:30;22.90;94.40
25450;DHT22;13371;52.080;5.624;2022-08-01T00:38:56;22.90;94.00
25450;DHT22;13371;52.080;5.624;2022-08-01T00:41:21;22.90;94.20
25450;DHT22;13371;52.080;5.624;2022-08-01T00:43:47;22.70;94.30
25450;DHT22;13371;52.080;5.624;2022-08-01T00:46:12;22.80;94.50
25450;DHT22;13371;52.080;5.624;2022-08-01T00:48:38;22.90;94.30
25450;DHT22;13371;52.080;5.624;2022-08-01T00:51:04;22.70;94.10
25450;DHT22;13371;52.080;5.624;2022-08-01T00:53:30;22.70;94.50
25450;DHT22;13371;52.080;5.624;2022-08-01T00:55:56;22.50;94.50
25450;DHT22;13371;52.080;5.624;2022-08-01T00:58:22;22.40;94.90
25450;DHT22;13371;52.080;5.624;2022-08-01T01:00:48;22.40;95.00
25450;DHT22;13371;52.080;5.624;2022-08-01T01:03:14;22.30;95.20
25450;DHT22;13371;52.080;5.624;2022-08-01T01:06:05;22.20;95.10
25450;DHT22;13371;52.080;5.624;2022-08-01T01:08:37;22.40;95.10
25450;DHT22;13371;52.080;5.624;2022-08-01T01:11:11;22.50;94.90
25450;DHT22;13371;52.080;5.624;2022-08-01T01:13:43;22.50;94.90
25450;DHT22;13371;52.080;5.624;2022-08-01T01:16:13;22.40;95.10
25450;DHT22;13371;52.080;5.624;2022-08-01T01:18:46;22.40;95.10
25450;DHT22;13371;52.080;5.624;2022-08-01T01:23:50;22.40;95.40
25450;DHT22;13371;52.080;5.624;2022-08-01T01:26:40;22.40;95.10
25450;DHT22;13371;52.080;5.624;2022-08-01T01:29:15;22.40;95.30
25450;DHT22;13371;52.080;5.624;2022-08-01T01:34:09;22.40;95.30
25450;DHT22;13371;52.080;5.624;2022-08-01T01:36:37;22.40;95.30
25450;DHT22;13371;52.080;5.624;2022-08-01T01:39:03;22.40;95.40
25450;DHT22;13371;52.080;5.624;2022-08-01T01:41:30;22.40;95.10
25450;DHT22;13371;52.080;5.624;2022-08-01T01:43:56;22.20;95.70
25450;DHT22;13371;52.080;5.624;2022-08-01T01:46:24;22.30;95.60
25450;DHT22;13371;52.080;5.624;2022-08-01T01:48:54;22.50;95.50
25450;DHT22;13371;52.080;5.624;2022-08-01T01:51:22;22.50;95.40
25450;DHT22;13371;52.080;5.624;2022-08-01T01:53:49;22.50;95.50
25450;DHT22;13371;52.080;5.624;2022-08-01T01:56:17;22.50;95.30
25450;DHT22;13371;52.080;5.624;2022-08-01T01:58:44;22.40;95.60
25450;DHT22;13371;52.080;5.624;2022-08-01T02:01:11;22.30;95.80
25450;DHT22;13371;52.080;5.624;2022-08-01T02:03:38;22.30;95.90
25450;DHT22;13371;52.080;5.624;2022-08-01T02:06:05;22.50;95.50
25450;DHT22;13371;52.080;5.624;2022-08-01T02:08:32;22.50;95.30
25450;DHT22;13371;52.080;5.624;2022-08-01T02:11:01;22.50;95.40
25450;DHT22;13371;52.080;5.624;2022-08-01T02:13:54;22.60;95.30
25450;DHT22;13371;52.080;5.624;2022-08-01T02:16:23;22.50;95.30
25450;DHT22;13371;52.080;5.624;2022-08-01T02:18:50;22.40;95.60
25450;DHT22;13371;52.080;5.624;2022-08-01T02:21:23;22.30;95.90
25450;DHT22;13371;52.080;5.624;2022-08-01T02:23:50;22.20;96.20
25450;DHT22;13371;52.080;5.624;2022-08-01T02:26:18;22.20;95.90
25450;DHT22;13371;52.080;5.624;2022-08-01T02:28:47;22.10;96.30
25450;DHT22;13371;52.080;5.624;2022-08-01T02:31:17;22.10;96.40
25450;DHT22;13371;52.080;5.624;2022-08-01T02:33:47;22.20;96.30
25450;DHT22;13371;52.080;5.624;2022-08-01T02:36:15;22.20;96.20
25450;DHT22;13371;52.080;5.624;2022-08-01T02:38:43;22.30;96.30
25450;DHT22;13371;52.080;5.624;2022-08-01T02:41:18;22.40;96.50
25450;DHT22;13371;52.080;5.624;2022-08-01T02:43:47;22.40;96.10
25450;DHT22;13371;52.080;5.624;2022-08-01T02:46:26;22.40;96.00
25450;DHT22;13371;52.080;5.624;2022-08-01T02:48:53;22.50;95.60
25450;DHT22;13371;52.080;5.624;2022-08-01T02:51:22;22.40;96.00
25450;DHT22;13371;52.080;5.624;2022-08-01T02:53:50;22.50;95.70
25450;DHT22;13371;52.080;5.624;2022-08-01T02:56:17;22.60;95.60
25450;DHT22;13371;52.080;5.624;2022-08-01T02:58:44;22.60;95.60
25450;DHT22;13371;52.080;5.624;2022-08-01T03:01:12;22.70;95.70
25450;DHT22;13371;52.080;5.624;2022-08-01T03:03:38;22.60;95.60
25450;DHT22;13371;52.080;5.624;2022-08-01T03:06:05;22.60;95.60
25450;DHT22;13371;52.080;5.624;2022-08-01T03:08:31;22.70;95.50
25450;DHT22;13371;52.080;5.624;2022-08-01T03:10:59;22.60;95.50
25450;DHT22;13371;52.080;5.624;2022-08-01T03:13:27;22.70;95.30
25450;DHT22;13371;52.080;5.624;2022-08-01T03:15:56;22.80;95.20
25450;DHT22;13371;52.080;5.624;2022-08-01T03:18:24;22.70;95.10
25450;DHT22;13371;52.080;5.624;2022-08-01T03:20:52;22.50;95.60
25450;DHT22;13371;52.080;5.624;2022-08-01T03:23:21;22.40;95.90
25450;DHT22;13371;52.080;5.624;2022-08-01T03:25:49;22.40;95.80
25450;DHT22;13371;52.080;5.624;2022-08-01T03:28:16;22.30;95.90
25450;DHT22;13371;52.080;5.624;2022-08-01T03:30:42;22.40;95.70
25450;DHT22;13371;52.080;5.624;2022-08-01T03:33:09;22.50;95.70
25450;DHT22;13371;52.080;5.624;2022-08-01T03:35:40;22.50;95.50
25450;DHT22;13371;52.080;5.624;2022-08-01T03:38:09;22.50;95.50
25450;DHT22;13371;52.080;5.624;2022-08-01T03:40:45;22.50;95.40
25450;DHT22;13371;52.080;5.624;2022-08-01T03:43:34;22.40;95.50
25450;DHT22;13371;52.080;5.624;2022-08-01T03:46:08;22.40;95.60
25450;DHT22;13371;52.080;5.624;2022-08-01T03:48:38;22.40;95.60
25450;DHT22;13371;52.080;5.624;2022-08-01T03:51:05;22.50;95.60
25450;DHT22;13371;52.080;5.624;2022-08-01T03:53:33;22.40;95.50
25450;DHT22;13371;52.080;5.624;2022-08-01T03:56:01;22.40;95.50
25450;DHT22;13371;52.080;5.624;2022-08-01T03:58:28;22.30;95.60
25450;DHT22;13371;52.080;5.624;2022-08-01T04:00:55;22.40;95.60
25450;DHT22;13371;52.080;5.624;2022-08-01T04:03:21;22.50;95.60
25450;DHT22;13371;52.080;5.624;2022-08-01T04:05:47;22.50;95.30
25450;DHT22;13371;52.080;5.624;2022-08-01T04:08:13;22.50;95.40
25450;DHT22;13371;52.080;5.624;2022-08-01T04:10:39;22.70;95.40
25450;DHT22;13371;52.080;5.624;2022-08-01T04:13:04;22.50;95.50
25450;DHT22;13371;52.080;5.624;2022-08-01T04:15:30;22.40;95.80
25450;DHT22;13371;52.080;5.624;2022-08-01T04:17:55;22.10;95.90
25450;DHT22;13371;52.080;5.624;2022-08-01T04:20:21;21.90;96.30
25450;DHT22;13371;52.080;5.624;2022-08-01T04:22:47;22.00;96.50
25450;DHT22;13371;52.080;5.624;2022-08-01T04:25:15;22.30;96.20
25450;DHT22;13371;52.080;5.624;2022-08-01T04:27:46;22.40;95.90
25450;DHT22;13371;52.080;5.624;2022-08-01T04:30:13;22.40;96.00
25450;DHT22;13371;52.080;5.624;2022-08-01T04:32:42;22.50;95.80
25450;DHT22;13371;52.080;5.624;2022-08-01T04:35:12;22.70;95.50
25450;DHT22;13371;52.080;5.624;2022-08-01T04:37:39;22.60;95.40
25450;DHT22;13371;52.080;5.624;2022-08-01T04:40:06;22.70;95.30
25450;DHT22;13371;52.080;5.624;2022-08-01T04:42:35;22.50;95.30
25450;DHT22;13371;52.080;5.624;2022-08-01T04:45:01;22.60;95.60
25450;DHT22;13371;52.080;5.624;2022-08-01T04:47:27;22.60;95.80
25450;DHT22;13371;52.080;5.624;2022-08-01T04:49:55;22.60;95.60
25450;DHT22;13371;52.080;5.624;2022-08-01T04:52:22;22.60;95.60
25450;DHT22;13371;52.080;5.624;2022-08-01T04:54:47;22.60;95.60
25450;DHT22;13371;52.080;5.624;2022-08-01T04:57:13;22.60;95.70
25450;DHT22;13371;52.080;5.624;2022-08-01T04:59:42;22.60;95.80
25450;DHT22;13371;52.080;5.624;2022-08-01T05:02:16;22.70;95.60
25450;DHT22;13371;52.080;5.624;2022-08-01T05:04:44;22.50;95.60
25450;DHT22;13371;52.080;5.624;2022-08-01T05:07:11;22.40;95.90
25450;DHT22;13371;52.080;5.624;2022-08-01T05:09:37;22.30;95.80
25450;DHT22;13371;52.080;5.624;2022-08-01T05:12:04;22.20;96.20
25450;DHT22;13371;52.080;5.624;2022-08-01T05:14:31;22.20;96.20
25450;DHT22;13371;52.080;5.624;2022-08-01T05:17:01;22.10;96.10
25450;DHT22;13371;52.080;5.624;2022-08-01T05:19:32;21.70;96.70
25450;DHT22;13371;52.080;5.624;2022-08-01T05:21:58;21.60;97.00
25450;DHT22;13371;52.080;5.624;2022-08-01T05:24:29;21.40;97.10
25450;DHT22;13371;52.080;5.624;2022-08-01T05:26:55;21.10;97.70
25450;DHT22;13371;52.080;5.624;2022-08-01T05:29:21;21.10;97.80
25450;DHT22;13371;52.080;5.624;2022-08-01T05:31:46;21.00;97.30
25450;DHT22;13371;52.080;5.624;2022-08-01T05:34:12;20.90;97.70
25450;DHT22;13371;52.080;5.624;2022-08-01T05:36:37;21.00;97.40
25450;DHT22;13371;52.080;5.624;2022-08-01T05:39:04;21.20;97.50
25450;DHT22;13371;52.080;5.624;2022-08-01T05:41:30;21.00;96.80
25450;DHT22;13371;52.080;5.624;2022-08-01T05:43:55;21.10;96.80
25450;DHT22;13371;52.080;5.624;2022-08-01T05:46:21;21.10;97.10
25450;DHT22;13371;52.080;5.624;2022-08-01T05:48:47;20.90;96.90
25450;DHT22;13371;52.080;5.624;2022-08-01T05:51:13;20.60;97.30
25450;DHT22;13371;52.080;5.624;2022-08-01T05:53:38;20.70;97.50
25450;DHT22;13371;52.080;5.624;2022-08-01T05:56:04;20.90;97.40
25450;DHT22;13371;52.080;5.624;2022-08-01T05:58:30;20.80;96.90
25450;DHT22;13371;52.080;5.624;2022-08-01T06:00:55;20.80;97.60
25450;DHT22;13371;52.080;5.624;2022-08-01T06:03:21;21.00;97.20
25450;DHT22;13371;52.080;5.624;2022-08-01T06:05:47;21.10;97.20
25450;DHT22;13371;52.080;5.624;2022-08-01T06:08:12;21.40;96.70
25450;DHT22;13371;52.080;5.624;2022-08-01T06:10:38;21.70;96.60
25450;DHT22;13371;52.080;5.624;2022-08-01T06:13:03;21.80;96.30
25450;DHT22;13371;52.080;5.624;2022-08-01T06:15:30;21.80;95.80
25450;DHT22;13371;52.080;5.624;2022-08-01T06:17:55;21.90;96.10
25450;DHT22;13371;52.080;5.624;2022-08-01T06:20:21;22.10;95.90
25450;DHT22;13371;52.080;5.624;2022-08-01T06:22:47;22.30;95.40
25450;DHT22;13371;52.080;5.624;2022-08-01T06:25:12;22.30;95.40
25450;DHT22;13371;52.080;5.624;2022-08-01T06:27:38;22.30;95.50
25450;DHT22;13371;52.080;5.624;2022-08-01T06:30:04;22.00;95.50
25450;DHT22;13371;52.080;5.624;2022-08-01T06:32:31;22.30;95.20
25450;DHT22;13371;52.080;5.624;2022-08-01T06:34:57;22.40;95.10
25450;DHT22;13371;52.080;5.624;2022-08-01T06:37:22;22.50;95.00
25450;DHT22;13371;52.080;5.624;2022-08-01T06:39:48;22.20;95.00
25450;DHT22;13371;52.080;5.624;2022-08-01T06:42:14;22.20;95.70
25450;DHT22;13371;52.080;5.624;2022-08-01T06:44:40;22.50;95.40
25450;DHT22;13371;52.080;5.624;2022-08-01T06:47:06;22.60;95.20
25450;DHT22;13371;52.080;5.624;2022-08-01T06:49:32;22.40;95.40
25450;DHT22;13371;52.080;5.624;2022-08-01T06:51:57;22.30;95.30
25450;DHT22;13371;52.080;5.624;2022-08-01T06:54:23;22.50;95.60
25450;DHT22;13371;52.080;5.624;2022-08-01T06:56:48;22.60;94.90
25450;DHT22;13371;52.080;5.624;2022-08-01T06:59:14;22.60;95.00
25450;DHT22;13371;52.080;5.624;2022-08-01T07:01:39;22.60;94.90
25450;DHT22;13371;52.080;5.624;2022-08-01T07:04:05;22.70;94.50
25450;DHT22;13371;52.080;5.624;2022-08-01T07:06:31;21.90;95.80
25450;DHT22;13371;52.080;5.624;2022-08-01T07:08:57;22.30;95.80
25450;DHT22;13371;52.080;5.624;2022-08-01T07:11:23;22.40;95.50
25450;DHT22;13371;52.080;5.624;2022-08-01T07:13:49;22.70;95.20
25450;DHT22;13371;52.080;5.624;2022-08-01T07:16:15;22.60;94.90
25450;DHT22;13371;52.080;5.624;2022-08-01T07:18:41;22.70;95.00
25450;DHT22;13371;52.080;5.624;2022-08-01T07:21:07;22.80;94.60
25450;DHT22;13371;52.080;5.624;2022-08-01T07:23:33;22.80;94.50
25450;DHT22;13371;52.080;5.624;2022-08-01T07:25:58;22.80;94.50
25450;DHT22;13371;52.080;5.624;2022-08-01T07:28:29;22.90;94.50
25450;DHT22;13371;52.080;5.624;2022-08-01T07:30:55;22.60;94.60
25450;DHT22;13371;52.080;5.624;2022-08-01T07:33:21;22.90;94.60
25450;DHT22;13371;52.080;5.624;2022-08-01T07:35:47;22.80;94.40
25450;DHT22;13371;52.080;5.624;2022-08-01T07:38:13;22.70;94.60
25450;DHT22;13371;52.080;5.624;2022-08-01T07:40:42;22.50;94.90
25450;DHT22;13371;52.080;5.624;2022-08-01T07:43:08;22.80;94.80
25450;DHT22;13371;52.080;5.624;2022-08-01T07:45:33;22.80;94.70
25450;DHT22;13371;52.080;5.624;2022-08-01T07:48:04;22.80;94.90
25450;DHT22;13371;52.080;5.624;2022-08-01T07:50:29;22.90;94.90
25450;DHT22;13371;52.080;5.624;2022-08-01T07:52:55;22.70;94.70
25450;DHT22;13371;52.080;5.624;2022-08-01T07:55:20;22.60;94.90
25450;DHT22;13371;52.080;5.624;2022-08-01T07:57:46;22.80;94.60
25450;DHT22;13371;52.080;5.624;2022-08-01T08:00:12;22.90;94.30
25450;DHT22;13371;52.080;5.624;2022-08-01T08:02:38;23.00;94.50
25450;DHT22;13371;52.080;5.624;2022-08-01T08:05:04;23.20;94.30
25450;DHT22;13371;52.080;5.624;2022-08-01T08:07:30;23.20;94.20
25450;DHT22;13371;52.080;5.624;2022-08-01T08:09:55;22.60;94.10
25450;DHT22;13371;52.080;5.624;2022-08-01T08:12:21;22.50;95.00
25450;DHT22;13371;52.080;5.624;2022-08-01T08:14:47;22.60;95.00
25450;DHT22;13371;52.080;5.624;2022-08-01T08:17:12;22.60;95.00
25450;DHT22;13371;52.080;5.624;2022-08-01T08:19:38;22.80;94.80
25450;DHT22;13371;52.080;5.624;2022-08-01T08:22:06;22.90;94.80
25450;DHT22;13371;52.080;5.624;2022-08-01T08:24:32;22.90;95.10
25450;DHT22;13371;52.080;5.624;2022-08-01T08:26:59;22.50;94.80
25450;DHT22;13371;52.080;5.624;2022-08-01T08:29:26;22.30;94.80
25450;DHT22;13371;52.080;5.624;2022-08-01T08:31:53;22.30;95.40
25450;DHT22;13371;52.080;5.624;2022-08-01T08:34:19;22.40;95.20
25450;DHT22;13371;52.080;5.624;2022-08-01T08:36:44;22.20;95.40
25450;DHT22;13371;52.080;5.624;2022-08-01T08:39:10;21.50;96.00
25450;DHT22;13371;52.080;5.624;2022-08-01T08:41:36;21.30;96.30
25450;DHT22;13371;52.080;5.624;2022-08-01T08:44:06;21.10;96.30
25450;DHT22;13371;52.080;5.624;2022-08-01T08:46:33;21.00;97.20
25450;DHT22;13371;52.080;5.624;2022-08-01T08:49:01;21.10;96.80
25450;DHT22;13371;52.080;5.624;2022-08-01T08:51:27;21.20;96.80
25450;DHT22;13371;52.080;5.624;2022-08-01T08:53:56;20.90;97.20
25450;DHT22;13371;52.080;5.624;2022-08-01T08:56:24;21.10;97.00
25450;DHT22;13371;52.080;5.624;2022-08-01T08:58:51;21.30;96.80
25450;DHT22;13371;52.080;5.624;2022-08-01T09:01:17;21.30;96.10
25450;DHT22;13371;52.080;5.624;2022-08-01T09:03:44;21.10;96.80
25450;DHT22;13371;52.080;5.624;2022-08-01T09:06:10;21.20;96.80
25450;DHT22;13371;52.080;5.624;2022-08-01T09:08:36;21.30;96.70
25450;DHT22;13371;52.080;5.624;2022-08-01T09:11:03;21.30;96.10
25450;DHT22;13371;52.080;5.624;2022-08-01T09:13:29;21.40;96.70
25450;DHT22;13371;52.080;5.624;2022-08-01T09:15:55;21.30;96.00
25450;DHT22;13371;52.080;5.624;2022-08-01T09:18:28;21.50;95.60
25450;DHT22;13371;52.080;5.624;2022-08-01T09:21:12;21.40;96.10
25450;DHT22;13371;52.080;5.624;2022-08-01T09:23:38;21.40;95.50
25450;DHT22;13371;52.080;5.624;2022-08-01T09:26:09;21.90;95.10
25450;DHT22;13371;52.080;5.624;2022-08-01T09:28:36;22.00;94.80
25450;DHT22;13371;52.080;5.624;2022-08-01T09:31:10;21.70;94.60
25450;DHT22;13371;52.080;5.624;2022-08-01T09:33:55;21.70;94.30
25450;DHT22;13371;52.080;5.624;2022-08-01T09:36:24;21.50;93.40
25450;DHT22;13371;52.080;5.624;2022-08-01T09:38:51;21.70;94.70
25450;DHT22;13371;52.080;5.624;2022-08-01T09:41:17;22.00;94.10
25450;DHT22;13371;52.080;5.624;2022-08-01T09:43:53;22.20;93.90
25450;DHT22;13371;52.080;5.624;2022-08-01T09:46:18;22.60;94.30
25450;DHT22;13371;52.080;5.624;2022-08-01T09:51:31;22.80;92.20
25450;DHT22;13371;52.080;5.624;2022-08-01T09:53:57;22.80;92.00
25450;DHT22;13371;52.080;5.624;2022-08-01T09:56:24;22.90;93.10
25450;DHT22;13371;52.080;5.624;2022-08-01T09:58:51;23.10;92.90
25450;DHT22;13371;52.080;5.624;2022-08-01T10:01:20;23.30;92.40
25450;DHT22;13371;52.080;5.624;2022-08-01T10:03:46;23.20;91.80
25450;DHT22;13371;52.080;5.624;2022-08-01T10:06:21;22.60;91.50
25450;DHT22;13371;52.080;5.624;2022-08-01T10:08:47;22.40;92.60
25450;DHT22;13371;52.080;5.624;2022-08-01T10:11:13;22.30;91.80
25450;DHT22;13371;52.080;5.624;2022-08-01T10:13:40;22.10;91.40
25450;DHT22;13371;52.080;5.624;2022-08-01T10:16:06;22.40;92.30
25450;DHT22;13371;52.080;5.624;2022-08-01T10:18:33;22.80;91.70
25450;DHT22;13371;52.080;5.624;2022-08-01T10:21:01;23.30;92.60
25450;DHT22;13371;52.080;5.624;2022-08-01T10:23:33;23.40;92.60
25450;DHT22;13371;52.080;5.624;2022-08-01T10:26:00;23.20;90.80
25450;DHT22;13371;52.080;5.624;2022-08-01T10:28:26;23.30;90.70
25450;DHT22;13371;52.080;5.624;2022-08-01T10:30:55;23.40;90.80
25450;DHT22;13371;52.080;5.624;2022-08-01T10:33:23;23.60;91.10
25450;DHT22;13371;52.080;5.624;2022-08-01T10:35:50;23.70;90.80
25450;DHT22;13371;52.080;5.624;2022-08-01T10:38:15;23.70;88.20
25450;DHT22;13371;52.080;5.624;2022-08-01T10:40:42;23.80;90.10
25450;DHT22;13371;52.080;5.624;2022-08-01T10:43:10;23.90;89.80
25450;DHT22;13371;52.080;5.624;2022-08-01T10:45:36;24.00;86.50
25450;DHT22;13371;52.080;5.624;2022-08-01T10:50:58;24.10;86.50
25450;DHT22;13371;52.080;5.624;2022-08-01T10:53:26;24.00;87.10
25450;DHT22;13371;52.080;5.624;2022-08-01T10:56:03;23.80;86.50
25450;DHT22;13371;52.080;5.624;2022-08-01T10:58:33;24.10;86.50
25450;DHT22;13371;52.080;5.624;2022-08-01T11:04:10;24.20;85.20
25450;DHT22;13371;52.080;5.624;2022-08-01T11:06:54;24.20;87.20
25450;DHT22;13371;52.080;5.624;2022-08-01T11:09:27;24.50;87.70
25450;DHT22;13371;52.080;5.624;2022-08-01T11:14:23;24.90;86.80
25450;DHT22;13371;52.080;5.624;2022-08-01T11:16:48;24.50;84.40
25450;DHT22;13371;52.080;5.624;2022-08-01T11:19:14;24.70;85.50
25450;DHT22;13371;52.080;5.624;2022-08-01T11:27:29;25.10;80.50
25450;DHT22;13371;52.080;5.624;2022-08-01T11:35:16;24.40;78.70
25450;DHT22;13371;52.080;5.624;2022-08-01T11:37:41;24.00;80.30
25450;DHT22;13371;52.080;5.624;2022-08-01T11:40:19;24.00;80.70
25450;DHT22;13371;52.080;5.624;2022-08-01T11:42:45;24.20;83.40
25450;DHT22;13371;52.080;5.624;2022-08-01T11:45:11;24.40;80.10
25450;DHT22;13371;52.080;5.624;2022-08-01T11:47:47;24.80;83.80
25450;DHT22;13371;52.080;5.624;2022-08-01T11:50:31;24.90;77.40
25450;DHT22;13371;52.080;5.624;2022-08-01T11:52:59;24.80;79.30
25450;DHT22;13371;52.080;5.624;2022-08-01T11:55:27;24.70;77.80
25450;DHT22;13371;52.080;5.624;2022-08-01T11:58:05;24.60;76.70
25450;DHT22;13371;52.080;5.624;2022-08-01T12:00:31;24.40;78.80
25450;DHT22;13371;52.080;5.624;2022-08-01T12:05:25;24.70;81.40
25450;DHT22;13371;52.080;5.624;2022-08-01T12:07:51;24.70;80.00
25450;DHT22;13371;52.080;5.624;2022-08-01T12:10:19;24.80;77.60
25450;DHT22;13371;52.080;5.624;2022-08-01T12:12:56;24.80;77.10
25450;DHT22;13371;52.080;5.624;2022-08-01T12:15:28;24.60;74.80
25450;DHT22;13371;52.080;5.624;2022-08-01T12:17:59;24.70;80.40
25450;DHT22;13371;52.080;5.624;2022-08-01T12:20:31;24.80;78.70
25450;DHT22;13371;52.080;5.624;2022-08-01T12:23:01;24.80;77.40
25450;DHT22;13371;52.080;5.624;2022-08-01T12:25:28;24.70;73.40
25450;DHT22;13371;52.080;5.624;2022-08-01T12:27:53;24.40;75.60
25450;DHT22;13371;52.080;5.624;2022-08-01T12:30:21;24.70;76.90
25450;DHT22;13371;52.080;5.624;2022-08-01T12:32:51;24.60;75.70
25450;DHT22;13371;52.080;5.624;2022-08-01T12:35:18;24.70;78.20
25450;DHT22;13371;52.080;5.624;2022-08-01T12:37:47;24.70;76.00
25450;DHT22;13371;52.080;5.624;2022-08-01T12:40:17;24.80;74.50
25450;DHT22;13371;52.080;5.624;2022-08-01T12:42:44;24.80;76.50
25450;DHT22;13371;52.080;5.624;2022-08-01T12:45:14;25.00;73.00
25450;DHT22;13371;52.080;5.624;2022-08-01T12:47:40;25.20;76.80
25450;DHT22;13371;52.080;5.624;2022-08-01T12:50:11;25.60;75.40
25450;DHT22;13371;52.080;5.624;2022-08-01T12:52:37;26.10;74.40
25450;DHT22;13371;52.080;5.624;2022-08-01T12:57:31;25.60;70.50
25450;DHT22;13371;52.080;5.624;2022-08-01T13:02:37;25.70;68.30
25450;DHT22;13371;52.080;5.624;2022-08-01T13:05:03;25.90;71.60
25450;DHT22;13371;52.080;5.624;2022-08-01T13:07:49;25.90;68.60
25450;DHT22;13371;52.080;5.624;2022-08-01T13:10:25;26.10;69.60
25450;DHT22;13371;52.080;5.624;2022-08-01T13:12:53;25.80;65.20
25450;DHT22;13371;52.080;5.624;2022-08-01T13:15:25;25.70;65.70
25450;DHT22;13371;52.080;5.624;2022-08-01T13:17:53;26.00;61.70
25450;DHT22;13371;52.080;5.624;2022-08-01T13:20:27;26.20;66.20
25450;DHT22;13371;52.080;5.624;2022-08-01T13:22:53;26.60;65.80
25450;DHT22;13371;52.080;5.624;2022-08-01T13:25:19;26.50;62.90
25450;DHT22;13371;52.080;5.624;2022-08-01T13:27:45;26.50;62.70
25450;DHT22;13371;52.080;5.624;2022-08-01T13:32:40;26.50;61.80
25450;DHT22;13371;52.080;5.624;2022-08-01T13:35:10;26.70;62.50
25450;DHT22;13371;52.080;5.624;2022-08-01T13:37:42;26.70;60.40
25450;DHT22;13371;52.080;5.624;2022-08-01T13:40:10;27.00;63.70
25450;DHT22;13371;52.080;5.624;2022-08-01T13:42:36;26.80;62.60
25450;DHT22;13371;52.080;5.624;2022-08-01T13:45:04;26.90;63.90
25450;DHT22;13371;52.080;5.624;2022-08-01T13:47:32;27.20;62.50
25450;DHT22;13371;52.080;5.624;2022-08-01T13:50:00;27.10;59.70
25450;DHT22;13371;52.080;5.624;2022-08-01T13:52:28;27.20;59.10
25450;DHT22;13371;52.080;5.624;2022-08-01T13:54:54;26.80;56.50
25450;DHT22;13371;52.080;5.624;2022-08-01T13:57:19;26.80;59.90
25450;DHT22;13371;52.080;5.624;2022-08-01T13:59:45;26.90;60.10
25450;DHT22;13371;52.080;5.624;2022-08-01T14:02:11;26.60;58.20
25450;DHT22;13371;52.080;5.624;2022-08-01T14:04:37;26.70;61.50
25450;DHT22;13371;52.080;5.624;2022-08-01T14:07:02;27.10;62.20
25450;DHT22;13371;52.080;5.624;2022-08-01T14:09:28;27.40;60.30
25450;DHT22;13371;52.080;5.624;2022-08-01T14:11:53;27.50;58.40
25450;DHT22;13371;52.080;5.624;2022-08-01T14:14:19;27.30;58.60
25450;DHT22;13371;52.080;5.624;2022-08-01T14:16:44;27.20;58.90
25450;DHT22;13371;52.080;5.624;2022-08-01T14:19:10;26.80;59.10
25450;DHT22;13371;52.080;5.624;2022-08-01T14:21:36;27.10;59.80
25450;DHT22;13371;52.080;5.624;2022-08-01T14:24:01;27.00;57.90
25450;DHT22;13371;52.080;5.624;2022-08-01T14:26:27;26.70;57.60
25450;DHT22;13371;52.080;5.624;2022-08-01T14:28:53;26.30;57.50
25450;DHT22;13371;52.080;5.624;2022-08-01T14:31:21;26.40;59.40
25450;DHT22;13371;52.080;5.624;2022-08-01T14:33:46;26.50;61.80
25450;DHT22;13371;52.080;5.624;2022-08-01T14:36:12;27.10;61.30
25450;DHT22;13371;52.080;5.624;2022-08-01T14:38:37;27.20;56.70
25450;DHT22;13371;52.080;5.624;2022-08-01T14:41:03;26.90;55.80
25450;DHT22;13371;52.080;5.624;2022-08-01T14:43:29;26.90;57.60
25450;DHT22;13371;52.080;5.624;2022-08-01T14:45:56;27.30;60.50
25450;DHT22;13371;52.080;5.624;2022-08-01T14:48:22;27.40;57.60
25450;DHT22;13371;52.080;5.624;2022-08-01T14:50:47;27.20;56.70
25450;DHT22;13371;52.080;5.624;2022-08-01T14:53:13;27.20;56.70
25450;DHT22;13371;52.080;5.624;2022-08-01T14:55:39;26.80;57.20
25450;DHT22;13371;52.080;5.624;2022-08-01T14:58:04;27.20;58.50
25450;DHT22;13371;52.080;5.624;2022-08-01T15:00:30;27.30;58.60
25450;DHT22;13371;52.080;5.624;2022-08-01T15:02:56;27.70;55.30
25450;DHT22;13371;52.080;5.624;2022-08-01T15:05:21;27.30;56.50
25450;DHT22;13371;52.080;5.624;2022-08-01T15:07:47;27.50;58.10
25450;DHT22;13371;52.080;5.624;2022-08-01T15:10:12;27.50;56.70
25450;DHT22;13371;52.080;5.624;2022-08-01T15:12:39;27.50;55.10
25450;DHT22;13371;52.080;5.624;2022-08-01T15:15:05;27.80;56.00
25450;DHT22;13371;52.080;5.624;2022-08-01T15:17:32;27.80;54.20
25450;DHT22;13371;52.080;5.624;2022-08-01T15:20:01;27.50;54.10
25450;DHT22;13371;52.080;5.624;2022-08-01T15:22:27;27.10;56.30
25450;DHT22;13371;52.080;5.624;2022-08-01T15:24:55;27.10;55.30
25450;DHT22;13371;52.080;5.624;2022-08-01T15:27:21;27.30;57.40
25450;DHT22;13371;52.080;5.624;2022-08-01T15:29:48;27.60;56.00
25450;DHT22;13371;52.080;5.624;2022-08-01T15:32:14;27.50;58.40
25450;DHT22;13371;52.080;5.624;2022-08-01T15:34:42;27.70;58.70
25450;DHT22;13371;52.080;5.624;2022-08-01T15:37:11;27.80;56.30
25450;DHT22;13371;52.080;5.624;2022-08-01T15:39:37;27.70;56.30
25450;DHT22;13371;52.080;5.624;2022-08-01T15:42:10;27.20;54.10
25450;DHT22;13371;52.080;5.624;2022-08-01T15:44:36;27.00;56.80
25450;DHT22;13371;52.080;5.624;2022-08-01T15:47:03;26.90;56.10
25450;DHT22;13371;52.080;5.624;2022-08-01T15:49:29;27.00;57.40
25450;DHT22;13371;52.080;5.624;2022-08-01T15:51:55;27.10;56.20
25450;DHT22;13371;52.080;5.624;2022-08-01T15:54:21;26.80;55.70
25450;DHT22;13371;52.080;5.624;2022-08-01T15:56:46;26.90;55.30
25450;DHT22;13371;52.080;5.624;2022-08-01T15:59:12;26.90;54.60
25450;DHT22;13371;52.080;5.624;2022-08-01T16:01:38;27.00;55.60
25450;DHT22;13371;52.080;5.624;2022-08-01T16:04:07;27.10;55.50
25450;DHT22;13371;52.080;5.624;2022-08-01T16:06:33;27.00;54.20
25450;DHT22;13371;52.080;5.624;2022-08-01T16:08:59;27.20;52.10